Time;durP1;ratioP1;P1;durP2;ratioP2;P2;SDS_P1;SDS_P2;PMS_P1;PMS_P2;Temp;Humidity;BMP_temperature;BMP_pressure;BME280_temperature;BME280_humidity;BME280_pressure;Samples;Min_cycle;Max_cycle;Signal;HPM_P1;HPM_P2
2023/08/01 00:00:29;;;;;;;2.60;2.27;;;17.10;99.90;;;;;;5070883;28;20490;-73
2023/08/01 00:02:56;;;;;;;2.80;2.60;;;17.10;99.90;;;;;;5071323;28;20461;-73
2023/08/01 00:05:22;;;;;;;2.80;2.37;;;17.10;99.90;;;;;;5070490;28;20485;-73
2023/08/01 00:07:49;;;;;;;3.33;2.70;;;17.10;99.90;;;;;;5070689;28;20493;-73
2023/08/01 00:10:16;;;;;;;3.17;2.83;;;17.10;99.90;;;;;;5071172;28;20454;-71
2023/08/01 00:12:44;;;;;;;2.73;2.50;;;17.10;99.90;;;;;;5066739;28;20816;-73
2023/08/01 00:15:11;;;;;;;2.80;2.47;;;17.10;99.90;;;;;;5070865;28;20996;-72
2023/08/01 00:17:38;;;;;;;2.53;2.33;;;17.10;99.90;;;;;;5054690;28;20481;-73
2023/08/01 00:20:06;;;;;;;2.80;2.43;;;17.10;99.90;;;;;;5071161;28;20459;-73
2023/08/01 00:22:33;;;;;;;4.57;2.50;;;17.10;99.90;;;;;;5070440;28;20455;-73
2023/08/01 00:25:00;;;;;;;2.97;2.67;;;17.20;99.90;;;;;;5070645;28;20455;-73
2023/08/01 00:27:26;;;;;;;2.60;2.40;;;17.10;99.90;;;;;;5069668;28;20489;-73
2023/08/01 00:29:54;;;;;;;7.10;2.17;;;17.10;99.90;;;;;;5069660;28;20960;-73
2023/08/01 00:32:21;;;;;;;2.77;2.10;;;17.10;99.90;;;;;;5069897;28;20455;-72
2023/08/01 00:34:50;;;;;;;2.93;2.40;;;17.10;99.90;;;;;;5070356;28;20477;-73
2023/08/01 00:37:17;;;;;;;2.57;2.33;;;17.10;99.90;;;;;;5069617;28;20451;-73
2023/08/01 00:39:44;;;;;;;3.60;2.60;;;17.10;99.90;;;;;;5070423;28;20455;-72
2023/08/01 00:42:10;;;;;;;4.40;2.47;;;17.10;99.90;;;;;;5070516;28;20451;-73
2023/08/01 00:44:37;;;;;;;2.97;2.40;;;17.10;99.90;;;;;;5070155;28;20451;-72
2023/08/01 00:47:05;;;;;;;2.93;2.30;;;17.10;99.90;;;;;;5070019;28;20479;-72
2023/08/01 00:49:32;;;;;;;2.73;2.30;;;17.20;99.90;;;;;;5070100;28;20474;-73
2023/08/01 00:51:59;;;;;;;3.63;2.80;;;17.20;99.90;;;;;;5070397;28;20462;-73
2023/08/01 00:54:26;;;;;;;4.80;3.10;;;17.20;99.90;;;;;;5069956;28;20778;-73
2023/08/01 00:56:53;;;;;;;3.70;2.77;;;17.10;99.90;;;;;;5063398;28;20822;-73
2023/08/01 00:59:20;;;;;;;3.40;2.73;;;17.10;99.90;;;;;;5069956;28;20474;-73
2023/08/01 01:01:46;;;;;;;2.83;2.53;;;17.10;99.90;;;;;;5069940;28;20450;-73
2023/08/01 01:04:14;;;;;;;2.60;2.40;;;17.10;99.90;;;;;;5070246;28;20465;-73
2023/08/01 01:06:46;;;;;;;2.40;2.20;;;17.10;99.90;;;;;;5069236;28;20475;-73
2023/08/01 01:09:16;;;;;;;4.30;2.63;;;17.10;99.90;;;;;;5070184;28;20477;-73
2023/08/01 01:11:43;;;;;;;3.03;2.50;;;17.10;99.90;;;;;;5070110;28;20569;-73
2023/08/01 01:14:10;;;;;;;5.90;3.23;;;17.10;99.90;;;;;;5070282;28;20462;-73
2023/08/01 01:16:37;;;;;;;6.20;2.43;;;17.10;99.90;;;;;;5069819;28;20454;-73
2023/08/01 01:19:10;;;;;;;3.20;2.70;;;17.10;99.90;;;;;;5069794;28;20478;-73
2023/08/01 01:21:40;;;;;;;3.30;2.50;;;17.10;99.90;;;;;;5070324;28;20459;-73
2023/08/01 01:24:10;;;;;;;3.27;2.43;;;17.20;99.90;;;;;;5070236;28;20455;-73
2023/08/01 01:26:37;;;;;;;5.60;2.53;;;17.10;99.90;;;;;;5069650;28;20478;-73
2023/08/01 01:29:06;;;;;;;2.73;2.40;;;17.10;99.90;;;;;;5069789;28;20478;-72
2023/08/01 01:31:34;;;;;;;3.63;2.63;;;17.10;99.90;;;;;;5069038;28;20451;-73
2023/08/01 01:34:01;;;;;;;5.90;2.87;;;17.10;99.90;;;;;;5069813;28;20459;-72
2023/08/01 01:36:29;;;;;;;2.60;2.40;;;17.00;99.90;;;;;;5069476;28;20447;-73
2023/08/01 01:38:57;;;;;;;2.70;2.40;;;17.10;99.90;;;;;;5069637;28;20482;-73
2023/08/01 01:41:23;;;;;;;4.40;2.23;;;17.10;99.90;;;;;;5073427;28;20451;-73
2023/08/01 01:43:50;;;;;;;3.13;2.47;;;17.00;99.90;;;;;;5074436;28;20459;-73
2023/08/01 01:46:17;;;;;;;2.33;2.10;;;17.00;99.90;;;;;;5073855;28;20541;-73
2023/08/01 01:48:44;;;;;;;3.37;2.43;;;17.00;99.90;;;;;;5073253;28;20483;-72
2023/08/01 01:51:10;;;;;;;4.77;2.67;;;17.00;99.90;;;;;;5074013;28;20447;-73
2023/08/01 01:53:37;;;;;;;4.23;2.53;;;17.00;99.90;;;;;;5073691;28;20648;-73
2023/08/01 01:56:05;;;;;;;3.37;2.67;;;16.90;99.90;;;;;;5073851;28;20450;-73
2023/08/01 01:58:32;;;;;;;6.70;3.17;;;16.90;99.90;;;;;;5073170;28;20474;-72
2023/08/01 02:00:59;;;;;;;3.30;2.90;;;16.90;99.90;;;;;;5073892;28;20481;-73
2023/08/01 02:03:25;;;;;;;3.27;2.87;;;16.80;99.90;;;;;;5073406;28;20837;-73
2023/08/01 02:05:52;;;;;;;3.13;2.53;;;16.80;99.90;;;;;;5073493;28;20461;-73
2023/08/01 02:08:19;;;;;;;3.40;2.57;;;16.80;99.90;;;;;;5073148;28;20854;-73
2023/08/01 02:10:46;;;;;;;3.60;2.67;;;16.70;99.90;;;;;;5073392;28;20459;-74
2023/08/01 02:13:14;;;;;;;3.73;2.60;;;16.80;99.90;;;;;;5073737;28;21053;-73
2023/08/01 02:15:40;;;;;;;3.73;2.80;;;16.80;99.90;;;;;;5072562;28;20520;-73
2023/08/01 02:18:07;;;;;;;3.20;2.90;;;16.70;99.90;;;;;;5072890;28;20476;-73
2023/08/01 02:20:34;;;;;;;3.10;2.53;;;16.70;99.90;;;;;;5073023;28;20458;-73
2023/08/01 02:23:01;;;;;;;7.90;2.83;;;16.80;99.90;;;;;;5073199;28;20972;-73
2023/08/01 02:25:27;;;;;;;3.90;2.50;;;16.80;99.90;;;;;;5072756;28;20458;-72
2023/08/01 02:27:54;;;;;;;3.47;2.23;;;16.80;99.90;;;;;;5072867;28;20989;-73
2023/08/01 02:30:22;;;;;;;6.40;2.60;;;16.70;99.90;;;;;;5073681;28;20454;-74
2023/08/01 02:32:49;;;;;;;3.77;2.57;;;16.80;99.90;;;;;;5073237;28;20458;-73
2023/08/01 02:35:16;;;;;;;2.97;2.50;;;16.80;99.90;;;;;;5072908;28;20458;-73
2023/08/01 02:37:42;;;;;;;2.77;2.40;;;16.80;99.90;;;;;;5072328;28;20470;-73
2023/08/01 02:40:10;;;;;;;3.43;2.40;;;16.80;99.90;;;;;;5072991;28;20463;-73
2023/08/01 02:42:37;;;;;;;2.80;2.60;;;16.90;99.90;;;;;;5072705;28;20450;-73
2023/08/01 02:45:05;;;;;;;3.33;2.63;;;16.80;99.90;;;;;;5072731;28;20946;-73
2023/08/01 02:47:33;;;;;;;3.63;3.27;;;16.90;99.90;;;;;;5072146;28;20485;-74
2023/08/01 02:49:59;;;;;;;4.87;2.90;;;16.90;99.90;;;;;;5072840;28;20450;-74
2023/08/01 02:52:26;;;;;;;3.23;2.60;;;16.90;99.90;;;;;;5071656;28;20466;-74
2023/08/01 02:54:53;;;;;;;3.07;2.77;;;16.90;99.90;;;;;;5056385;28;20516;-74
2023/08/01 02:57:20;;;;;;;5.03;2.90;;;16.90;99.90;;;;;;5072107;28;20461;-74
2023/08/01 02:59:46;;;;;;;2.93;2.23;;;17.00;99.90;;;;;;5072060;28;20458;-74
2023/08/01 03:02:13;;;;;;;3.10;2.50;;;16.90;99.90;;;;;;5072742;28;20462;-74
2023/08/01 03:04:41;;;;;;;3.27;2.17;;;17.00;99.90;;;;;;5072216;28;20467;-74
2023/08/01 03:07:08;;;;;;;3.93;2.50;;;17.00;99.90;;;;;;5072216;28;20501;-74
2023/08/01 03:09:35;;;;;;;2.83;2.50;;;16.90;99.90;;;;;;5072324;28;20926;-74
2023/08/01 03:12:01;;;;;;;4.20;2.67;;;16.90;99.90;;;;;;5071976;28;20465;-74
2023/08/01 03:14:28;;;;;;;4.97;2.80;;;16.90;99.90;;;;;;5071904;28;20531;-73
2023/08/01 03:16:55;;;;;;;3.60;2.97;;;16.90;99.90;;;;;;5055491;28;20454;-74
2023/08/01 03:19:22;;;;;;;4.20;3.13;;;16.90;99.90;;;;;;5072042;28;20531;-74
2023/08/01 03:21:50;;;;;;;3.40;2.70;;;16.90;99.90;;;;;;5072086;28;20454;-73
2023/08/01 03:24:16;;;;;;;3.17;2.53;;;16.90;99.90;;;;;;5072441;28;20466;-72
2023/08/01 03:26:43;;;;;;;5.00;2.67;;;17.00;99.90;;;;;;5071296;28;20455;-74
2023/08/01 03:29:10;;;;;;;2.70;2.40;;;17.00;99.90;;;;;;5072287;28;20485;-74
2023/08/01 03:31:36;;;;;;;3.97;2.43;;;17.00;99.90;;;;;;5068474;28;20455;-74
2023/08/01 03:34:04;;;;;;;2.47;2.07;;;17.10;99.90;;;;;;5039271;28;20481;-73
2023/08/01 03:36:30;;;;;;;2.60;2.40;;;17.10;99.90;;;;;;5043964;28;20460;-74
2023/08/01 03:38:58;;;;;;;3.90;2.70;;;17.10;99.90;;;;;;5036853;28;20552;-73
2023/08/01 03:41:25;;;;;;;2.77;2.50;;;17.10;99.90;;;;;;5037374;28;20467;-74
2023/08/01 03:43:52;;;;;;;3.17;2.53;;;17.10;99.90;;;;;;5047892;28;20495;-73
2023/08/01 03:46:19;;;;;;;3.90;2.60;;;17.10;99.90;;;;;;5047848;28;20836;-76
2023/08/01 03:48:45;;;;;;;4.53;2.57;;;17.10;99.90;;;;;;5069120;28;20486;-74
2023/08/01 03:51:15;;;;;;;2.90;2.47;;;17.10;99.90;;;;;;5070468;28;20458;-74
2023/08/01 03:53:42;;;;;;;3.63;2.70;;;17.10;99.90;;;;;;5070307;28;20461;-75
2023/08/01 03:56:10;;;;;;;4.03;2.80;;;17.10;99.90;;;;;;5071690;28;20459;-73
2023/08/01 03:58:36;;;;;;;4.00;2.47;;;17.10;99.90;;;;;;5070798;28;20501;-72
2023/08/01 04:01:06;;;;;;;3.77;2.23;;;17.10;99.90;;;;;;5069901;28;20463;-74
2023/08/01 04:03:33;;;;;;;3.73;2.40;;;17.10;99.90;;;;;;5063776;28;20473;-76
2023/08/01 04:05:59;;;;;;;3.47;2.87;;;17.10;99.90;;;;;;5050444;28;20450;-74
2023/08/01 04:10:54;;;;;;;2.40;2.20;;;17.20;99.90;;;;;;5061718;28;20468;-69
2023/08/01 04:13:22;;;;;;;8.73;2.50;;;17.20;99.90;;;;;;5068091;28;20459;-69
2023/08/01 04:15:49;;;;;;;3.17;2.83;;;17.20;99.90;;;;;;5068258;28;20459;-69
2023/08/01 04:18:15;;;;;;;3.67;3.37;;;17.30;99.90;;;;;;5067855;28;20493;-69
2023/08/01 04:20:42;;;;;;;4.10;3.00;;;17.30;99.90;;;;;;5068176;28;20461;-71
2023/08/01 04:23:09;;;;;;;5.30;2.43;;;17.20;99.90;;;;;;5068311;28;20482;-69
2023/08/01 04:25:36;;;;;;;3.07;2.77;;;17.20;99.90;;;;;;5068366;28;20462;-69
2023/08/01 04:28:02;;;;;;;3.73;2.47;;;17.30;99.90;;;;;;5069046;28;20836;-69
2023/08/01 04:30:30;;;;;;;3.93;2.17;;;17.30;99.90;;;;;;5070505;28;20462;-70
2023/08/01 04:32:57;;;;;;;4.80;2.33;;;17.30;99.90;;;;;;5070433;28;20549;-71
2023/08/01 04:35:24;;;;;;;4.53;2.60;;;17.30;99.90;;;;;;5070021;28;20470;-70
2023/08/01 04:37:50;;;;;;;2.90;2.57;;;17.30;99.90;;;;;;5070397;28;20490;-70
2023/08/01 04:40:17;;;;;;;2.27;2.07;;;17.30;99.90;;;;;;5070378;28;20477;-70
2023/08/01 04:42:44;;;;;;;2.70;2.17;;;17.30;99.90;;;;;;5070330;28;20451;-69
2023/08/01 04:45:11;;;;;;;3.20;2.60;;;17.30;99.90;;;;;;5070457;28;20856;-70
2023/08/01 04:47:39;;;;;;;3.37;2.20;;;17.30;99.90;;;;;;5070289;28;20866;-71
2023/08/01 04:50:07;;;;;;;4.80;2.60;;;17.30;99.90;;;;;;5062034;28;20463;-72
2023/08/01 04:52:33;;;;;;;4.77;2.50;;;17.30;99.90;;;;;;5070826;28;20497;-72
2023/08/01 04:55:00;;;;;;;2.63;2.43;;;17.30;99.90;;;;;;5070585;28;20461;-73
2023/08/01 04:57:27;;;;;;;6.23;2.80;;;17.30;99.90;;;;;;5069887;28;20462;-69
2023/08/01 04:59:53;;;;;;;3.30;2.80;;;17.30;99.90;;;;;;5070226;28;20961;-71
2023/08/01 05:02:20;;;;;;;2.93;2.13;;;17.40;99.90;;;;;;5070296;28;20466;-74
2023/08/01 05:04:48;;;;;;;4.63;2.70;;;17.40;99.90;;;;;;5070475;28;20451;-70
2023/08/01 05:07:15;;;;;;;3.60;2.73;;;17.40;99.90;;;;;;5069538;28;20458;-69
2023/08/01 05:09:42;;;;;;;2.53;2.33;;;17.40;99.90;;;;;;5070001;28;20469;-71
2023/08/01 05:12:09;;;;;;;2.60;2.20;;;17.40;99.90;;;;;;5070256;28;20466;-73
2023/08/01 05:14:36;;;;;;;3.83;2.87;;;17.40;99.90;;;;;;5070119;28;20815;-71
2023/08/01 05:17:03;;;;;;;3.43;2.33;;;17.40;99.90;;;;;;5069909;28;20459;-70
2023/08/01 05:19:30;;;;;;;4.20;2.53;;;17.40;99.90;;;;;;5070352;28;20471;-72
2023/08/01 05:21:58;;;;;;;3.43;2.60;;;17.30;99.90;;;;;;5070315;28;20466;-73
2023/08/01 05:24:24;;;;;;;3.77;2.80;;;17.40;99.90;;;;;;5070289;28;20465;-71
2023/08/01 05:26:51;;;;;;;4.83;2.80;;;17.40;99.90;;;;;;5069683;28;20454;-71
2023/08/01 05:29:18;;;;;;;3.20;2.77;;;17.40;99.90;;;;;;5069852;28;20504;-72
2023/08/01 05:31:44;;;;;;;5.07;2.57;;;17.40;99.90;;;;;;5069797;28;20462;-72
2023/08/01 05:34:11;;;;;;;4.63;2.80;;;17.40;99.90;;;;;;5069900;28;20455;-71
2023/08/01 05:36:38;;;;;;;3.43;2.97;;;17.50;99.90;;;;;;5070092;28;20465;-71
2023/08/01 05:39:06;;;;;;;2.87;2.63;;;17.50;99.90;;;;;;5069380;28;20467;-71
2023/08/01 05:41:33;;;;;;;4.17;2.73;;;17.50;99.90;;;;;;5069973;28;20462;-71
2023/08/01 05:44:00;;;;;;;2.90;2.60;;;17.50;99.90;;;;;;5069003;28;20462;-71
2023/08/01 05:46:27;;;;;;;3.10;2.73;;;17.50;99.90;;;;;;5069707;28;20462;-70
2023/08/01 05:48:53;;;;;;;3.30;2.27;;;17.60;99.90;;;;;;5069114;28;20478;-71
2023/08/01 05:51:20;;;;;;;3.00;2.70;;;17.60;99.90;;;;;;5069661;28;20966;-71
2023/08/01 05:53:47;;;;;;;3.10;2.60;;;17.60;99.90;;;;;;5069776;28;20454;-70
2023/08/01 05:56:15;;;;;;;5.07;2.23;;;17.60;99.90;;;;;;5069453;28;20465;-71
2023/08/01 05:58:41;;;;;;;5.37;2.90;;;17.70;99.90;;;;;;5069405;28;20984;-72
2023/08/01 06:01:09;;;;;;;4.17;3.50;;;17.70;99.90;;;;;;5069407;28;20454;-73
2023/08/01 06:03:35;;;;;;;2.73;2.40;;;17.70;99.90;;;;;;5069627;28;20516;-72
2023/08/01 06:06:02;;;;;;;3.43;2.40;;;17.60;99.90;;;;;;5069335;28;20461;-72
2023/08/01 06:08:29;;;;;;;4.73;2.73;;;17.70;99.90;;;;;;5069193;28;20510;-72
2023/08/01 06:10:55;;;;;;;3.33;3.00;;;17.70;99.90;;;;;;5069505;28;20981;-72
2023/08/01 06:13:24;;;;;;;2.87;2.57;;;17.70;99.90;;;;;;5069365;28;20458;-71
2023/08/01 06:15:50;;;;;;;4.97;2.80;;;17.70;99.90;;;;;;5069165;28;20458;-71
2023/08/01 06:18:17;;;;;;;3.23;2.60;;;17.70;99.90;;;;;;5069125;28;20474;-70
2023/08/01 06:20:44;;;;;;;3.80;2.80;;;17.80;99.90;;;;;;5069711;28;20459;-70
2023/08/01 06:23:10;;;;;;;3.60;2.83;;;17.80;99.90;;;;;;5068935;28;20462;-70
2023/08/01 06:25:37;;;;;;;3.20;2.77;;;17.70;99.90;;;;;;5070083;28;20834;-72
2023/08/01 06:28:04;;;;;;;2.73;2.20;;;17.70;99.90;;;;;;5072724;28;20493;-70
2023/08/01 06:30:32;;;;;;;2.50;2.30;;;17.70;99.90;;;;;;5073283;28;20450;-70
2023/08/01 06:32:59;;;;;;;2.93;2.63;;;17.70;99.90;;;;;;5073072;28;20462;-70
2023/08/01 06:35:25;;;;;;;3.37;3.07;;;17.70;99.90;;;;;;5073021;28;20454;-70
2023/08/01 06:37:52;;;;;;;3.60;3.10;;;17.60;99.90;;;;;;5072626;28;20474;-70
2023/08/01 06:40:19;;;;;;;3.37;3.07;;;17.60;99.90;;;;;;5072822;28;20458;-75
2023/08/01 06:42:45;;;;;;;3.53;2.93;;;17.60;99.90;;;;;;5073198;28;20827;-73
2023/08/01 06:45:12;;;;;;;5.63;3.27;;;17.60;99.90;;;;;;5072447;28;20482;-73
2023/08/01 06:47:40;;;;;;;9.20;3.00;;;17.60;99.90;;;;;;5072084;28;20474;-74
2023/08/01 06:50:07;;;;;;;3.80;2.90;;;17.60;99.90;;;;;;5072449;28;20946;-73
2023/08/01 06:52:34;;;;;;;4.03;2.97;;;17.50;99.90;;;;;;5072926;28;20804;-73
2023/08/01 06:55:01;;;;;;;4.53;3.10;;;17.50;99.90;;;;;;5072689;28;20454;-73
2023/08/01 06:57:28;;;;;;;4.40;3.27;;;17.50;99.90;;;;;;5072498;28;20482;-73
2023/08/01 06:59:55;;;;;;;11.67;3.73;;;17.40;99.90;;;;;;5072460;28;20447;-75
2023/08/01 07:02:22;;;;;;;5.07;3.30;;;17.40;99.90;;;;;;5072493;28;20454;-74
2023/08/01 07:04:50;;;;;;;3.47;3.10;;;17.40;99.90;;;;;;5072503;28;20516;-71
2023/08/01 07:07:16;;;;;;;4.10;2.80;;;17.50;99.90;;;;;;5063422;28;20957;-72
2023/08/01 07:09:43;;;;;;;8.00;3.10;;;17.40;99.90;;;;;;5072292;28;20482;-72
2023/08/01 07:12:10;;;;;;;3.27;2.97;;;17.40;99.90;;;;;;5072144;28;20477;-72
2023/08/01 07:14:36;;;;;;;3.97;2.97;;;17.40;99.90;;;;;;5072213;28;20455;-72
2023/08/01 07:17:03;;;;;;;4.80;3.33;;;17.40;99.90;;;;;;5071441;28;20466;-70
2023/08/01 07:19:30;;;;;;;5.87;4.10;;;17.30;99.90;;;;;;5072029;28;20474;-71
2023/08/01 07:21:58;;;;;;;4.63;3.30;;;17.30;99.90;;;;;;5071946;28;20462;-72
2023/08/01 07:24:25;;;;;;;4.60;3.93;;;17.30;99.90;;;;;;5071994;28;20458;-72
2023/08/01 07:26:51;;;;;;;6.33;4.03;;;17.30;99.90;;;;;;5071215;28;20462;-71
2023/08/01 07:29:18;;;;;;;5.13;3.50;;;17.30;99.90;;;;;;5071366;28;20482;-71
2023/08/01 07:31:45;;;;;;;5.17;3.20;;;17.20;99.90;;;;;;5071888;28;20853;-71
2023/08/01 07:34:12;;;;;;;4.43;3.87;;;17.20;99.90;;;;;;5071404;28;20454;-71
2023/08/01 07:36:39;;;;;;;3.80;3.23;;;17.10;99.90;;;;;;5071730;28;20455;-71
2023/08/01 07:39:07;;;;;;;4.60;3.63;;;17.10;99.90;;;;;;5070400;28;20474;-71
2023/08/01 07:41:34;;;;;;;4.67;3.10;;;17.10;99.90;;;;;;5071844;28;20828;-71
2023/08/01 07:44:02;;;;;;;6.63;3.27;;;17.00;99.90;;;;;;5071108;28;20453;-70
2023/08/01 07:46:28;;;;;;;3.50;2.50;;;17.00;99.90;;;;;;5071493;28;20458;-70
2023/08/01 07:48:55;;;;;;;3.40;2.77;;;17.10;99.90;;;;;;5071114;28;20483;-70
2023/08/01 07:51:22;;;;;;;4.67;2.67;;;17.00;99.90;;;;;;5071585;28;20883;-69
2023/08/01 07:53:48;;;;;;;2.60;2.20;;;16.90;99.90;;;;;;5071498;28;20879;-70
2023/08/01 07:56:16;;;;;;;3.07;2.77;;;16.90;99.90;;;;;;5071212;28;20457;-72
2023/08/01 07:58:43;;;;;;;2.97;2.57;;;16.80;99.90;;;;;;5071035;28;20849;-72
2023/08/01 08:01:10;;;;;;;3.17;2.60;;;16.80;99.90;;;;;;5070971;28;20470;-72
2023/08/01 08:03:37;;;;;;;3.80;2.07;;;16.70;99.90;;;;;;5071234;28;20450;-73
2023/08/01 08:06:05;;;;;;;3.27;2.63;;;16.70;99.90;;;;;;5070779;28;20868;-73
2023/08/01 08:08:33;;;;;;;3.33;1.80;;;16.70;99.90;;;;;;5070477;28;20489;-74
2023/08/01 08:11:00;;;;;;;1.67;1.53;;;16.70;99.90;;;;;;5070732;28;20466;-72
2023/08/01 08:13:29;;;;;;;2.90;2.30;;;16.60;99.90;;;;;;5071031;28;20455;-70
2023/08/01 08:15:57;;;;;;;3.57;2.90;;;16.60;99.90;;;;;;5070854;28;20462;-71
2023/08/01 08:18:23;;;;;;;3.10;2.60;;;16.70;99.90;;;;;;5062401;28;20531;-73
2023/08/01 08:20:50;;;;;;;2.63;2.40;;;16.60;99.90;;;;;;5071043;28;20454;-73
2023/08/01 08:23:17;;;;;;;2.60;2.37;;;16.50;99.90;;;;;;5070688;28;20456;-73
2023/08/01 08:25:46;;;;;;;2.07;1.87;;;16.50;99.90;;;;;;5070716;28;20458;-74
2023/08/01 08:28:13;;;;;;;4.00;2.53;;;16.50;99.90;;;;;;5069937;28;20589;-73
2023/08/01 08:30:41;;;;;;;3.70;2.73;;;16.50;99.90;;;;;;5070962;28;20460;-71
2023/08/01 08:33:10;;;;;;;3.37;2.70;;;16.50;99.90;;;;;;5070385;28;20465;-71
2023/08/01 08:35:37;;;;;;;2.90;2.30;;;16.50;99.90;;;;;;5070635;28;20465;-71
2023/08/01 08:38:04;;;;;;;4.57;2.60;;;16.50;99.90;;;;;;5070248;28;20477;-73
2023/08/01 08:40:33;;;;;;;2.53;2.00;;;16.50;99.90;;;;;;5070708;28;20458;-71
2023/08/01 08:43:02;;;;;;;3.90;2.77;;;16.60;99.90;;;;;;5070526;28;20469;-71
2023/08/01 08:45:33;;;;;;;2.93;2.43;;;16.60;99.90;;;;;;5070274;28;21045;-71
2023/08/01 08:48:03;;;;;;;2.93;2.50;;;16.70;99.90;;;;;;5070317;28;20485;-72
2023/08/01 08:50:32;;;;;;;3.13;2.50;;;16.80;99.90;;;;;;5069525;28;20482;-72
2023/08/01 08:52:59;;;;;;;2.97;2.30;;;16.90;99.90;;;;;;5070673;28;20466;-73
2023/08/01 08:55:27;;;;;;;3.77;2.57;;;16.90;99.90;;;;;;5069715;28;20972;-72
2023/08/01 08:57:54;;;;;;;3.30;2.60;;;16.90;99.90;;;;;;5069915;28;20477;-72
2023/08/01 09:00:21;;;;;;;3.50;2.23;;;17.00;99.90;;;;;;5069969;28;20451;-71
2023/08/01 09:02:48;;;;;;;2.50;2.30;;;17.00;99.90;;;;;;5070362;28;20453;-73
2023/08/01 09:05:17;;;;;;;3.00;2.30;;;17.10;99.90;;;;;;5069627;28;20966;-71
2023/08/01 09:07:47;;;;;;;2.30;1.83;;;17.10;99.90;;;;;;5070140;28;20485;-71
2023/08/01 09:10:14;;;;;;;3.33;2.07;;;17.10;99.90;;;;;;5070016;28;20478;-73
2023/08/01 09:12:40;;;;;;;2.87;1.60;;;17.20;99.90;;;;;;5070697;28;20447;-72
2023/08/01 09:15:09;;;;;;;2.80;1.77;;;17.20;99.90;;;;;;5069873;28;20973;-72
2023/08/01 09:17:36;;;;;;;2.07;1.80;;;17.20;99.90;;;;;;5069690;28;20482;-70
2023/08/01 09:20:06;;;;;;;3.20;2.13;;;17.20;99.90;;;;;;5070137;28;20451;-71
2023/08/01 09:22:44;;;;;;;3.27;1.77;;;17.10;99.90;;;;;;5070170;28;20467;-73
2023/08/01 09:25:10;;;;;;;1.60;1.50;;;17.20;99.90;;;;;;5070094;28;20461;-70
2023/08/01 09:27:37;;;;;;;2.43;1.93;;;17.20;99.90;;;;;;5070012;28;20490;-71
2023/08/01 09:30:09;;;;;;;2.10;1.57;;;17.20;99.90;;;;;;5070126;28;21021;-72
2023/08/01 09:32:35;;;;;;;2.03;1.87;;;17.20;99.90;;;;;;5070139;28;20462;-73
2023/08/01 09:35:03;;;;;;;2.07;1.57;;;17.20;99.90;;;;;;5069823;28;20461;-73
2023/08/01 09:37:39;;;;;;;1.57;1.37;;;17.20;99.90;;;;;;5069311;28;21014;-73
2023/08/01 09:40:09;;;;;;;2.53;1.70;;;17.20;99.90;;;;;;5069486;28;20806;-70
2023/08/01 09:42:39;;;;;;;2.07;1.80;;;17.30;99.90;;;;;;5069704;28;20467;-71
2023/08/01 09:45:12;;;;;;;1.30;1.10;;;17.50;99.90;;;;;;5069624;28;20455;-70
2023/08/01 09:47:39;;;;;;;1.93;1.63;;;17.60;99.90;;;;;;5069440;28;20482;-71
2023/08/01 09:50:06;;;;;;;2.27;1.60;;;17.70;99.90;;;;;;5070478;28;20487;-70
2023/08/01 09:52:34;;;;;;;1.90;1.40;;;17.70;99.90;;;;;;5069552;28;20961;-70
2023/08/01 09:55:00;;;;;;;1.83;1.40;;;17.80;99.90;;;;;;5069414;28;20467;-70
2023/08/01 09:57:30;;;;;;;1.90;1.30;;;17.90;99.90;;;;;;5069208;28;20462;-71
2023/08/01 09:59:58;;;;;;;1.57;1.33;;;17.90;99.90;;;;;;5069830;28;20455;-71
2023/08/01 10:02:26;;;;;;;1.53;1.13;;;17.90;99.90;;;;;;5073219;28;20457;-70
2023/08/01 10:04:53;;;;;;;1.13;1.03;;;17.90;99.90;;;;;;5073792;28;20461;-71
2023/08/01 10:09:49;;;;;;;1.10;0.90;;;18.00;99.90;;;;;;5030167;28;20495;-73
2023/08/01 10:12:19;;;;;;;0.93;0.80;;;18.10;99.90;;;;;;5033421;28;20507;-73
2023/08/01 10:14:47;;;;;;;1.40;1.10;;;18.10;99.90;;;;;;5033712;28;20456;-72
2023/08/01 10:17:15;;;;;;;1.33;0.90;;;18.10;99.90;;;;;;5032899;28;20456;-73
2023/08/01 10:19:42;;;;;;;1.27;1.03;;;18.00;99.90;;;;;;5035294;28;20459;-73
2023/08/01 10:22:10;;;;;;;1.47;1.10;;;18.10;99.90;;;;;;5044894;28;20461;-72
2023/08/01 10:24:38;;;;;;;1.20;1.07;;;18.10;99.90;;;;;;5028934;28;20487;-73
2023/08/01 10:27:13;;;;;;;1.10;1.00;;;18.10;99.90;;;;;;5049350;28;20474;-73
2023/08/01 10:29:40;;;;;;;1.13;1.00;;;18.10;99.90;;;;;;5052418;28;20487;-73
2023/08/01 10:32:09;;;;;;;2.10;1.10;;;18.10;99.90;;;;;;5052938;28;21046;-73
2023/08/01 10:34:36;;;;;;;1.47;1.10;;;18.20;99.90;;;;;;5048917;28;20485;-74
2023/08/01 10:37:03;;;;;;;1.17;0.90;;;18.40;99.90;;;;;;5047929;28;20468;-73
2023/08/01 10:39:30;;;;;;;1.47;1.07;;;18.50;99.90;;;;;;5052517;28;20857;-71
2023/08/01 10:42:00;;;;;;;1.20;1.00;;;18.50;99.90;;;;;;5052010;28;20836;-72
2023/08/01 10:44:28;;;;;;;1.37;1.07;;;18.70;99.90;;;;;;5052123;28;20456;-72
2023/08/01 10:46:56;;;;;;;0.80;0.80;;;19.00;99.90;;;;;;5038133;28;20891;-72
2023/08/01 10:49:37;;;;;;;1.70;1.40;;;19.20;99.90;;;;;;5033735;28;20490;-73
2023/08/01 10:52:06;;;;;;;1.57;1.00;;;19.70;99.90;;;;;;5052502;28;20458;-73
2023/08/01 10:54:34;;;;;;;1.30;1.10;;;20.00;99.90;;;;;;5051403;28;20889;-69
2023/08/01 10:57:01;;;;;;;1.00;0.77;;;20.30;99.90;;;;;;5052081;28;20461;-72
2023/08/01 10:59:28;;;;;;;1.43;0.90;;;20.50;99.90;;;;;;5052079;28;20474;-71
2023/08/01 11:02:01;;;;;;;2.33;0.87;;;20.40;99.90;;;;;;5052697;28;20460;-70
2023/08/01 11:04:28;;;;;;;1.10;1.00;;;20.20;99.90;;;;;;5052282;28;20469;-71
2023/08/01 11:06:57;;;;;;;1.60;1.33;;;19.90;99.90;;;;;;5046254;28;20880;-69
2023/08/01 11:09:25;;;;;;;1.27;1.00;;;19.90;99.90;;;;;;5049490;28;20480;-69
2023/08/01 11:11:54;;;;;;;1.20;1.00;;;20.10;99.90;;;;;;5051822;28;20463;-70
2023/08/01 11:14:22;;;;;;;1.30;1.03;;;20.20;99.90;;;;;;5051670;28;20457;-71
2023/08/01 11:16:54;;;;;;;1.10;1.00;;;20.00;99.90;;;;;;5051922;28;20563;-71
2023/08/01 11:19:23;;;;;;;1.30;1.20;;;20.00;99.90;;;;;;5035083;28;20985;-71
2023/08/01 11:21:50;;;;;;;1.20;1.00;;;19.90;99.90;;;;;;5052168;28;20467;-70
2023/08/01 11:24:19;;;;;;;1.37;1.17;;;20.10;99.90;;;;;;5051372;28;20469;-71
2023/08/01 11:26:48;;;;;;;1.30;1.20;;;20.30;99.90;;;;;;5051855;28;20458;-70
2023/08/01 11:29:17;;;;;;;1.33;1.00;;;20.40;99.90;;;;;;5051602;28;20482;-71
2023/08/01 11:31:54;;;;;;;1.30;1.20;;;20.50;99.90;;;;;;5051235;28;20459;-70
2023/08/01 11:34:21;;;;;;;1.47;0.97;;;20.70;99.90;;;;;;5051465;28;20507;-70
2023/08/01 11:36:48;;;;;;;2.30;1.50;;;20.80;99.90;;;;;;5051517;28;20463;-71
2023/08/01 11:39:16;;;;;;;1.30;1.00;;;20.90;99.90;;;;;;5051414;28;20486;-69
2023/08/01 11:41:44;;;;;;;1.40;1.17;;;21.00;99.90;;;;;;5052045;28;20466;-71
2023/08/01 11:44:11;;;;;;;1.17;0.97;;;21.10;99.90;;;;;;5035711;28;20480;-71
2023/08/01 11:46:41;;;;;;;1.77;1.40;;;21.20;99.90;;;;;;5034081;28;20497;-72
2023/08/01 11:49:08;;;;;;;1.83;1.40;;;21.20;99.90;;;;;;5051355;28;20482;-70
2023/08/01 11:51:41;;;;;;;1.47;1.20;;;21.20;99.90;;;;;;5051365;28;20462;-71
2023/08/01 11:54:09;;;;;;;2.80;1.40;;;21.20;99.90;;;;;;5051302;28;20967;-71
2023/08/01 11:56:36;;;;;;;1.13;1.00;;;21.30;99.90;;;;;;5050812;28;20535;-72
2023/08/01 11:59:10;;;;;;;2.07;1.10;;;21.30;99.90;;;;;;5051297;28;20838;-72
2023/08/01 12:01:41;;;;;;;2.00;1.23;;;21.30;99.90;;;;;;5051065;28;20451;-72
2023/08/01 12:04:07;;;;;;;1.07;0.97;;;21.40;99.90;;;;;;5051531;28;20482;-73
2023/08/01 12:06:34;;;;;;;1.13;1.03;;;21.50;99.90;;;;;;5048955;28;20463;-72
2023/08/01 12:09:08;;;;;;;1.30;0.97;;;21.60;99.90;;;;;;5030508;28;20488;-73
2023/08/01 12:11:34;;;;;;;1.70;1.47;;;21.80;99.90;;;;;;5033374;28;20480;-71
2023/08/01 12:14:03;;;;;;;1.50;1.40;;;22.00;99.90;;;;;;5045726;28;20851;-72
2023/08/01 12:16:31;;;;;;;2.10;1.30;;;22.20;99.90;;;;;;5030726;28;21154;-76
2023/08/01 12:18:58;;;;;;;1.50;1.40;;;22.40;99.90;;;;;;5031112;28;20503;-71
2023/08/01 12:21:25;;;;;;;2.47;1.40;;;22.30;99.90;;;;;;5030419;28;20464;-72
2023/08/01 12:23:51;;;;;;;1.23;1.00;;;22.30;99.90;;;;;;5030667;28;20452;-72
2023/08/01 12:26:18;;;;;;;1.30;1.20;;;22.20;99.90;;;;;;5030630;28;20477;-69
2023/08/01 12:28:45;;;;;;;1.67;1.30;;;22.30;99.90;;;;;;5030379;28;20488;-73
2023/08/01 12:31:12;;;;;;;1.87;1.17;;;22.50;99.90;;;;;;5030470;28;20478;-73
2023/08/01 12:33:40;;;;;;;2.70;1.33;;;22.60;99.90;;;;;;5030204;28;20459;-73
2023/08/01 12:36:06;;;;;;;1.20;1.10;;;22.70;99.90;;;;;;5030652;28;20458;-71
2023/08/01 12:38:33;;;;;;;1.83;1.40;;;22.90;99.90;;;;;;5029829;28;20475;-71
2023/08/01 12:41:00;;;;;;;1.43;0.90;;;23.20;99.90;;;;;;5031081;28;20453;-71
2023/08/01 12:43:27;;;;;;;1.33;1.10;;;23.20;99.90;;;;;;5030401;28;20458;-70
2023/08/01 12:45:55;;;;;;;2.37;1.30;;;23.10;99.90;;;;;;5030014;28;20486;-71
2023/08/01 12:48:22;;;;;;;2.50;1.27;;;23.10;99.90;;;;;;5030381;28;20476;-71
2023/08/01 12:50:50;;;;;;;1.50;1.37;;;23.10;99.90;;;;;;5030784;28;20483;-70
2023/08/01 12:53:16;;;;;;;1.63;1.30;;;23.10;99.90;;;;;;5030906;28;20805;-70